Terminal Aerodrome Forecast
Issued by NWS

Home | Current Version | Previous Version | Text Only | Print | Product List | Glossary Off
Versions: 1 2 3 4 5 6 7 8 9 10 11 12 13 14 15

000
FTUS43 KFGF 211720
TAFBJI
TAF
KBJI 211720Z 2118/2218 12006KT 1SM -DZ BR OVC003
      TEMPO 2118/2121 5SM BR OVC006
     FM220600 VRB06KT 1/2SM -FZDZ FG OVC003
     FM221100 VRB03KT 1/2SM -FZDZ FG OVC001
     FM221600 VRB03KT 2SM -DZ BR OVC003=

USA.gov is the U.S. government's official web portal to all federal, state and local government web resources and services.